Time;durP1;ratioP1;P1;durP2;ratioP2;P2;SDS_P1;SDS_P2;PMS_P1;PMS_P2;Temp;Humidity;BMP_temperature;BMP_pressure;BME280_temperature;BME280_humidity;BME280_pressure;Samples;Min_cycle;Max_cycle;Signal;HPM_P1;HPM_P2
2023/01/19 00:06:25;;;;;;;8.18;4.35;;;;;;;21.45;53.84;98653.63;20930008;28;20416;-86
2023/01/19 00:16:25;;;;;;;8.50;4.85;;;;;;;21.44;53.70;98647.53;20910588;28;20040;-86
2023/01/19 00:26:26;;;;;;;8.10;4.18;;;;;;;21.42;53.93;98649.50;20913882;28;20040;-86
2023/01/19 00:36:27;;;;;;;8.32;4.20;;;;;;;21.41;53.85;98647.88;20919877;28;20041;-87
2023/01/19 00:46:27;;;;;;;8.85;4.00;;;;;;;21.39;53.72;98649.00;20916691;28;20071;-87
2023/01/19 00:56:27;;;;;;;8.52;3.83;;;;;;;21.36;53.83;98644.06;20908450;28;20044;-87
2023/01/19 01:06:29;;;;;;;7.00;3.50;;;;;;;21.33;54.19;98637.31;20925802;28;20037;-87
2023/01/19 01:16:29;;;;;;;7.05;3.80;;;;;;;21.31;54.31;98626.09;20937092;28;20041;-87
2023/01/19 01:26:30;;;;;;;7.28;3.38;;;;;;;21.26;54.24;98620.50;20915150;28;21691;-86
2023/01/19 01:36:32;;;;;;;7.72;3.70;;;;;;;21.20;54.53;98631.69;20915037;28;20206;-88
2023/01/19 01:46:32;;;;;;;6.27;3.30;;;;;;;21.20;54.08;98623.81;20926110;28;20469;-88
2023/01/19 01:56:37;;;;;;;5.37;3.30;;;;;;;21.24;53.91;98635.66;20926284;28;20045;-89
2023/01/19 02:16:58;;;;;;;4.78;2.88;;;;;;;21.19;54.12;98633.50;20917439;28;20048;-88
2023/01/19 02:27:00;;;;;;;5.35;2.80;;;;;;;21.20;53.81;98626.44;20914358;28;20707;-89
2023/01/19 02:37:06;;;;;;;4.63;2.93;;;;;;;21.10;54.05;98668.69;20910986;28;20045;-86
2023/01/19 02:47:06;;;;;;;3.97;2.38;;;;;;;21.05;54.12;98636.78;20917252;28;20099;-87
2023/01/19 02:57:38;;;;;;;2.80;2.20;;;;;;;21.00;54.47;98618.81;20934473;28;20041;-86
2023/01/19 03:07:49;;;;;;;3.67;2.67;;;;;;;21.00;54.39;98653.03;20911226;28;20051;-86
2023/01/19 03:17:51;;;;;;;3.35;2.22;;;;;;;21.01;54.59;98659.13;20925333;28;20580;-86
2023/01/19 03:27:56;;;;;;;3.60;2.28;;;;;;;20.97;54.43;98677.06;20919894;28;20135;-88
2023/01/19 03:37:59;;;;;;;2.85;2.08;;;;;;;20.99;54.25;98627.69;20922891;28;20040;-89
2023/01/19 03:48:00;;;;;;;2.67;1.73;;;;;;;20.97;54.32;98600.75;20920232;28;20051;-89
2023/01/19 03:58:01;;;;;;;3.20;2.20;;;;;;;20.93;53.99;98628.34;20906506;28;20045;-88
2023/01/19 04:08:02;;;;;;;3.42;1.98;;;;;;;20.91;54.14;98644.28;20916328;28;20036;-88
2023/01/19 04:18:04;;;;;;;3.13;2.08;;;;;;;20.92;54.01;98622.28;20907113;28;20083;-88
2023/01/19 04:28:04;;;;;;;3.40;2.00;;;;;;;20.91;53.59;98635.56;20919940;28;20048;-87
2023/01/19 04:38:04;;;;;;;2.85;1.48;;;;;;;20.87;54.06;98650.03;20921155;28;20037;-85
2023/01/19 04:48:13;;;;;;;2.08;1.35;;;;;;;20.87;54.12;98624.56;20911419;28;20177;-86
2023/01/19 04:58:14;;;;;;;3.50;1.90;;;;;;;20.88;54.43;98636.72;20887661;28;20045;-87
2023/01/19 05:08:15;;;;;;;3.55;1.88;;;;;;;20.90;54.34;98668.13;20885234;28;20061;-87
2023/01/19 05:18:19;;;;;;;1.65;1.23;;;;;;;20.95;53.70;98650.88;20895422;28;20044;-88
2023/01/19 05:28:20;;;;;;;4.50;1.55;;;;;;;21.01;53.92;98688.88;20876316;28;20238;-85
2023/01/19 05:38:21;;;;;;;9.20;2.22;;;;;;;21.15;55.50;98697.16;20881915;28;20080;-81
2023/01/19 05:48:23;;;;;;;11.35;2.33;;;;;;;21.24;55.40;98665.44;20889989;28;20496;-80
2023/01/19 05:58:24;;;;;;;7.80;2.47;;;;;;;21.17;49.47;98666.25;20889798;28;20036;-86
2023/01/19 06:08:24;;;;;;;7.40;2.55;;;;;;;21.27;53.39;98662.47;20907920;28;20078;-83
2023/01/19 06:18:26;;;;;;;6.15;1.95;;;;;;;21.24;49.68;98636.47;20895140;28;20041;-88
2023/01/19 06:28:26;;;;;;;5.30;2.22;;;;;;;21.38;52.80;98639.47;20914364;28;20089;-86
2023/01/19 06:38:27;;;;;;;6.78;2.30;;;;;;;21.47;53.73;98656.94;20914745;28;20045;-90
2023/01/19 06:48:27;;;;;;;13.45;2.75;;;;;;;21.52;52.38;98680.13;20914881;28;20048;-91
2023/01/19 06:58:28;;;;;;;6.35;2.22;;;;;;;21.60;53.42;98669.63;20921198;28;20043;-91
2023/01/19 07:08:29;;;;;;;7.03;2.20;;;;;;;21.68;53.84;98660.91;20918162;28;20033;-93
2023/01/19 07:18:35;;;;;;;5.63;1.77;;;;;;;21.72;53.80;98660.41;20942746;28;20064;-91
2023/01/19 07:28:44;;;;;;;3.83;1.50;;;;;;;21.74;53.05;98686.63;20944527;28;20078;-94
2023/01/19 07:38:44;;;;;;;6.43;2.08;;;;;;;21.75;53.26;98683.81;20956049;28;20060;-95
2023/01/19 07:48:46;;;;;;;11.55;3.35;;;;;;;21.77;52.86;98688.09;20942994;28;20064;-82
2023/01/19 07:58:49;;;;;;;4.43;2.50;;;;;;;21.76;52.36;98710.97;20876092;28;20518;-83
2023/01/19 08:08:50;;;;;;;6.50;3.60;;;;;;;21.77;52.79;98696.00;20904949;28;20032;-86
2023/01/19 08:18:53;;;;;;;7.55;2.90;;;;;;;21.79;53.11;98688.72;20898183;28;20041;-76
2023/01/19 08:28:58;;;;;;;9.73;4.07;;;;;;;21.82;52.70;98693.69;20920398;28;20035;-82
2023/01/19 08:38:59;;;;;;;8.30;3.92;;;;;;;21.85;53.13;98704.72;20908427;28;20075;-83
2023/01/19 08:48:59;;;;;;;10.80;4.13;;;;;;;21.84;52.20;98704.91;20897661;28;20493;-82
2023/01/19 08:59:00;;;;;;;6.75;4.28;;;;;;;21.81;51.86;98708.66;20913309;28;20053;-82
2023/01/19 09:09:00;;;;;;;7.65;4.25;;;;;;;21.82;51.90;98699.78;20922379;28;20045;-82
2023/01/19 09:19:00;;;;;;;9.18;4.88;;;;;;;21.80;52.17;98704.41;20924269;28;20076;-82
2023/01/19 09:29:01;;;;;;;7.43;4.80;;;;;;;21.77;51.41;98703.91;20929630;28;20067;-82
2023/01/19 09:39:02;;;;;;;6.07;3.60;;;;;;;21.74;51.56;98707.69;20934995;28;20032;-82
2023/01/19 09:49:14;;;;;;;6.38;4.10;;;;;;;21.68;51.35;98697.78;20934098;28;20056;-83
2023/01/19 09:59:25;;;;;;;6.07;4.13;;;;;;;21.62;51.87;98701.91;20928936;28;20267;-82
2023/01/19 10:09:42;;;;;;;7.78;4.57;;;;;;;21.60;51.67;98722.31;20925606;28;20041;-82
2023/01/19 10:19:49;;;;;;;7.78;4.47;;;;;;;21.58;51.47;98721.63;20927721;28;20040;-81
2023/01/19 10:29:50;;;;;;;7.05;4.07;;;;;;;21.55;51.33;98729.84;20929916;28;20054;-82
2023/01/19 10:39:53;;;;;;;6.38;4.90;;;;;;;21.54;50.72;98733.47;20913983;28;20048;-82
2023/01/19 10:49:55;;;;;;;7.78;4.88;;;;;;;21.52;50.71;98738.91;20913157;28;20063;-82
2023/01/19 10:59:56;;;;;;;8.77;5.28;;;;;;;21.49;51.00;98744.47;20924404;28;20052;-81
2023/01/19 11:10:29;;;;;;;8.02;5.50;;;;;;;21.47;50.67;98746.47;20928881;28;20044;-82
2023/01/19 11:20:34;;;;;;;7.13;4.82;;;;;;;21.46;50.60;98744.81;20871850;28;20083;-81
2023/01/19 11:30:35;;;;;;;8.30;5.50;;;;;;;21.45;50.39;98737.88;20923205;28;20044;-82
2023/01/19 11:40:37;;;;;;;8.88;6.47;;;;;;;21.44;50.31;98760.75;20905003;28;20036;-82
2023/01/19 11:50:42;;;;;;;10.82;7.13;;;;;;;21.41;50.41;98763.72;20901095;28;20052;-82
2023/01/19 12:00:45;;;;;;;8.68;6.22;;;;;;;21.41;50.14;98776.03;20920847;28;20041;-82
2023/01/19 12:10:46;;;;;;;9.00;6.20;;;;;;;21.39;49.99;98781.47;20919554;28;20045;-81
2023/01/19 12:20:54;;;;;;;8.82;6.28;;;;;;;21.42;49.68;98802.22;20907127;28;20090;-82
2023/01/19 12:30:57;;;;;;;10.10;6.25;;;;;;;21.40;49.86;98803.38;20916592;28;20182;-82
2023/01/19 12:41:29;;;;;;;8.95;6.05;;;;;;;21.38;49.81;98813.25;20899108;28;20037;-82
2023/01/19 12:51:30;;;;;;;9.30;6.30;;;;;;;21.36;49.28;98826.56;20887935;28;20052;-83
2023/01/19 13:01:31;;;;;;;8.55;5.70;;;;;;;21.35;49.53;98842.50;20914409;28;20090;-87
2023/01/19 13:11:32;;;;;;;9.55;5.72;;;;;;;21.36;49.58;98863.44;20920232;28;20037;-81
2023/01/19 13:21:42;;;;;;;8.27;5.47;;;;;;;21.39;49.53;98896.53;20900394;28;20131;-86
2023/01/19 13:31:44;;;;;;;6.65;5.00;;;;;;;21.39;49.81;98899.97;20914898;28;20044;-85
2023/01/19 13:41:46;;;;;;;8.13;4.97;;;;;;;21.42;49.48;98926.00;20904999;28;20041;-86
2023/01/19 13:52:12;;;;;;;8.40;5.50;;;;;;;21.42;49.55;98944.44;20908382;28;20793;-85
2023/01/19 14:02:13;;;;;;;8.32;5.28;;;;;;;21.42;49.28;98959.38;20925512;28;20064;-86
2023/01/19 14:12:17;;;;;;;12.68;5.03;;;;;;;21.42;49.34;98964.66;20893728;28;20054;-78
2023/01/19 14:22:17;;;;;;;7.57;5.05;;;;;;;21.40;49.33;98940.31;20913834;28;20174;-76
2023/01/19 14:32:43;;;;;;;10.85;5.82;;;;;;;21.41;49.27;98952.47;20897860;28;20041;-82
2023/01/19 14:42:52;;;;;;;14.05;5.28;;;;;;;21.40;48.85;98977.16;20905327;28;20032;-82
2023/01/19 14:53:02;;;;;;;13.63;5.85;;;;;;;21.38;49.08;98994.91;20880925;28;20499;-81
2023/01/19 15:03:04;;;;;;;9.77;5.53;;;;;;;21.36;48.90;99026.69;20889562;28;20040;-82
2023/01/19 15:13:05;;;;;;;10.38;5.03;;;;;;;21.34;48.78;99070.75;20876474;28;20040;-83
2023/01/19 15:23:05;;;;;;;12.20;5.18;;;;;;;21.31;48.40;99063.16;20880205;28;20179;-79
2023/01/19 15:33:18;;;;;;;11.95;5.30;;;;;;;21.30;48.90;99056.25;20910387;28;20060;-81
2023/01/19 15:43:20;;;;;;;;;;;;;;;21.30;48.84;99064.16;20911381;28;20044;-81
2023/01/19 15:53:35;;;;;;;10.38;5.13;;;;;;;21.27;49.11;99083.69;20910004;28;19952;-82
2023/01/19 16:03:37;;;;;;;7.10;4.63;;;;;;;21.26;49.43;99113.66;20907767;28;20471;-82
2023/01/19 16:13:45;;;;;;;9.82;5.10;;;;;;;21.24;49.62;99146.38;20913275;28;20139;-80
2023/01/19 16:23:46;;;;;;;11.18;5.55;;;;;;;21.21;49.73;99165.91;20917846;28;20045;-80
2023/01/19 16:33:47;;;;;;;12.90;6.05;;;;;;;21.17;49.11;99184.78;20906188;28;20041;-80
2023/01/19 16:43:52;;;;;;;15.63;5.32;;;;;;;21.13;49.20;99196.56;20908248;28;20041;-81
2023/01/19 16:53:52;;;;;;;10.85;6.40;;;;;;;21.07;49.45;99217.25;20915365;28;20167;-77
2023/01/19 17:03:53;;;;;;;11.90;5.57;;;;;;;21.08;49.52;99233.84;20881728;28;20048;-79
2023/01/19 17:13:58;;;;;;;9.13;5.53;;;;;;;21.02;49.40;99258.13;20885818;28;20048;-82
2023/01/19 17:24:00;;;;;;;10.52;6.15;;;;;;;21.03;48.99;99273.78;20905434;28;20048;-79
2023/01/19 17:34:01;;;;;;;12.45;5.72;;;;;;;21.04;50.06;99272.78;20911572;28;20037;-81
2023/01/19 17:44:04;;;;;;;10.13;5.88;;;;;;;21.11;50.71;99283.59;20899159;28;20093;-76
2023/01/19 17:54:05;;;;;;;14.50;7.57;;;;;;;21.10;50.64;99300.34;20894934;28;20590;-77
2023/01/19 18:04:07;;;;;;;13.02;7.47;;;;;;;21.10;50.26;99295.94;20907507;28;20052;-78
2023/01/19 18:14:08;;;;;;;13.13;6.73;;;;;;;21.11;50.61;99308.09;20930205;28;20044;-86
2023/01/19 18:24:09;;;;;;;28.60;26.15;;;;;;;21.13;50.78;99317.66;20949490;28;20314;-84
2023/01/19 18:34:10;;;;;;;15.00;7.70;;;;;;;21.12;50.51;99337.91;20942374;28;20065;-87
2023/01/19 18:44:11;;;;;;;14.80;9.73;;;;;;;21.16;51.05;99347.16;20918307;28;20130;-85
2023/01/19 18:54:13;;;;;;;13.25;8.50;;;;;;;21.18;52.00;99345.22;20939557;28;20052;-84
2023/01/19 19:04:14;;;;;;;16.33;9.47;;;;;;;21.26;54.57;99340.06;20935027;28;20550;-85
2023/01/19 19:14:15;;;;;;;25.48;12.65;;;;;;;21.32;56.04;99353.63;20917551;28;20506;-86
2023/01/19 19:24:18;;;;;;;27.95;14.98;;;;;;;21.33;55.63;99363.19;20932244;28;20056;-84
2023/01/19 19:34:19;;;;;;;23.13;14.00;;;;;;;21.33;55.17;99371.91;20910742;28;20040;-85
2023/01/19 19:44:19;;;;;;;24.88;12.65;;;;;;;21.33;54.46;99400.03;20920427;28;20505;-83
2023/01/19 19:54:20;;;;;;;21.27;11.73;;;;;;;21.33;53.99;99423.75;20901983;28;20465;-84
2023/01/19 20:04:22;;;;;;;16.33;10.45;;;;;;;21.31;53.41;99434.41;20911237;28;20056;-86
2023/01/19 20:14:24;;;;;;;23.60;11.67;;;;;;;21.28;53.07;99426.81;20931493;28;20459;-82
2023/01/19 20:24:25;;;;;;;22.83;10.07;;;;;;;21.11;51.14;99409.94;20899348;28;20052;-80
2023/01/19 20:34:29;;;;;;;17.42;9.75;;;;;;;21.11;51.47;99434.44;20885265;28;20049;-81
2023/01/19 20:44:31;;;;;;;21.35;9.02;;;;;;;21.13;52.06;99444.84;20834178;28;20479;-82
2023/01/19 20:54:32;;;;;;;15.30;8.30;;;;;;;21.16;52.13;99451.63;20927225;28;20072;-79
2023/01/19 21:04:34;;;;;;;12.75;7.63;;;;;;;21.16;52.17;99438.47;20916734;28;20093;-83
2023/01/19 21:14:35;;;;;;;12.68;8.00;;;;;;;21.14;52.67;99448.31;20948834;28;20036;-83
2023/01/19 21:24:36;;;;;;;13.35;7.95;;;;;;;21.08;52.32;99453.16;20936945;28;20084;-83
2023/01/19 21:34:36;;;;;;;11.60;6.95;;;;;;;21.05;52.27;99457.88;20967495;28;20037;-83
2023/01/19 21:44:37;;;;;;;13.57;7.00;;;;;;;21.02;52.16;99487.09;20957419;28;20056;-84
2023/01/19 21:54:38;;;;;;;9.93;6.90;;;;;;;21.04;51.99;99556.25;20967243;28;20051;-83
2023/01/19 22:04:39;;;;;;;9.38;6.07;;;;;;;21.04;52.28;99522.03;20951333;28;20490;-83
2023/01/19 22:14:41;;;;;;;8.43;5.80;;;;;;;21.06;51.76;99517.47;20970267;28;20452;-83
2023/01/19 22:24:45;;;;;;;10.35;5.70;;;;;;;21.03;51.71;99505.41;20945745;28;20049;-82
2023/01/19 22:34:48;;;;;;;11.48;6.30;;;;;;;21.03;51.90;99522.97;20946240;28;20071;-83
2023/01/19 22:44:49;;;;;;;9.27;6.18;;;;;;;21.02;51.78;99514.28;20971102;28;20045;-83
2023/01/19 22:54:51;;;;;;;8.45;5.63;;;;;;;20.98;51.80;99517.31;20946887;28;20140;-83
2023/01/19 23:04:52;;;;;;;10.53;5.53;;;;;;;20.99;52.37;99492.66;20960724;28;20060;-82
2023/01/19 23:14:52;;;;;;;8.65;5.25;;;;;;;20.97;52.34;99469.13;20943603;28;20051;-82
2023/01/19 23:24:53;;;;;;;7.82;4.75;;;;;;;20.95;52.23;99463.97;20940918;28;20044;-82
2023/01/19 23:34:55;;;;;;;8.23;5.32;;;;;;;20.93;52.22;99478.25;20941821;28;20045;-82
2023/01/19 23:44:55;;;;;;;6.97;4.80;;;;;;;20.90;52.27;99495.16;20942612;28;20075;-83
2023/01/19 23:54:56;;;;;;;6.88;4.60;;;;;;;20.92;52.08;99510.78;20920544;28;20136;-82
